createdAt,value
2023-08-15T00:01:14.888Z,5.63
2023-08-15T00:03:41.752Z,4.87
2023-08-15T00:06:08.582Z,5.17
2023-08-15T00:08:35.292Z,5.50
2023-08-15T00:11:01.992Z,5.20
2023-08-15T00:13:28.671Z,5.20
2023-08-15T00:15:55.397Z,5.27
2023-08-15T00:18:22.112Z,4.50
2023-08-15T00:20:49.457Z,4.90
2023-08-15T00:23:16.480Z,5.50
2023-08-15T00:25:43.759Z,5.80
2023-08-15T00:28:10.484Z,5.70
2023-08-15T00:30:37.212Z,5.13
2023-08-15T00:33:04.095Z,5.97
2023-08-15T00:35:30.790Z,5.10
2023-08-15T00:37:57.734Z,5.53
2023-08-15T00:40:24.771Z,5.80
2023-08-15T00:42:51.773Z,5.10
2023-08-15T00:45:18.601Z,5.70
2023-08-15T00:47:45.811Z,5.50
2023-08-15T00:50:13.367Z,5.80
2023-08-15T00:52:41.059Z,5.30
2023-08-15T00:55:10.903Z,5.60
2023-08-15T00:57:37.898Z,5.70
2023-08-15T01:00:05.378Z,5.50
2023-08-15T01:02:32.575Z,5.67
2023-08-15T01:04:59.361Z,4.93
2023-08-15T01:07:26.146Z,4.83
2023-08-15T01:09:52.920Z,4.90
2023-08-15T01:12:34.333Z,4.90
2023-08-15T01:15:08.390Z,5.03
2023-08-15T01:17:44.594Z,4.80
2023-08-15T01:20:15.995Z,5.47
2023-08-15T01:22:47.909Z,4.40
2023-08-15T01:25:14.649Z,5.10
2023-08-15T01:27:41.376Z,4.90
2023-08-15T01:30:08.679Z,4.43
2023-08-15T01:32:47.001Z,4.60
2023-08-15T01:35:20.461Z,4.90
2023-08-15T01:37:59.953Z,4.57
2023-08-15T01:40:28.024Z,4.60
2023-08-15T01:42:57.004Z,4.67
2023-08-15T01:45:25.856Z,5.17
2023-08-15T01:47:53.399Z,4.90
2023-08-15T01:50:20.324Z,4.57
2023-08-15T01:52:47.185Z,4.77
2023-08-15T01:55:13.998Z,4.53
2023-08-15T01:57:40.731Z,4.30
2023-08-15T02:00:08.196Z,5.10
2023-08-15T02:02:35.316Z,4.87
2023-08-15T02:05:03.447Z,4.50
2023-08-15T02:07:30.363Z,4.80
2023-08-15T02:09:57.056Z,4.80
2023-08-15T02:12:23.763Z,4.30
2023-08-15T02:14:50.527Z,4.83
2023-08-15T02:17:17.350Z,4.93
2023-08-15T02:19:44.113Z,4.73
2023-08-15T02:22:10.802Z,5.30
2023-08-15T02:24:37.503Z,4.90
2023-08-15T02:27:04.398Z,4.93
2023-08-15T02:29:31.124Z,5.27
2023-08-15T02:31:58.532Z,4.67
2023-08-15T02:34:25.255Z,4.67
2023-08-15T02:36:51.950Z,5.00
2023-08-15T02:39:18.651Z,4.40
2023-08-15T02:41:45.594Z,4.20
2023-08-15T02:44:12.350Z,5.30
2023-08-15T02:46:39.149Z,5.43
2023-08-15T02:49:06.624Z,5.50
2023-08-15T02:51:33.359Z,5.50
2023-08-15T02:54:00.071Z,4.80
2023-08-15T02:56:26.829Z,4.93
2023-08-15T02:58:54.103Z,6.37
2023-08-15T03:01:20.997Z,5.90
2023-08-15T03:03:47.811Z,5.53
2023-08-15T03:06:14.541Z,5.67
2023-08-15T03:08:41.259Z,5.80
2023-08-15T03:11:07.980Z,6.10
2023-08-15T03:13:34.767Z,5.73
2023-08-15T03:16:01.472Z,5.70
2023-08-15T03:18:28.176Z,5.47
2023-08-15T03:21:02.043Z,5.57
2023-08-15T03:23:28.930Z,5.90
2023-08-15T03:26:00.282Z,5.60
2023-08-15T03:28:27.297Z,5.20
2023-08-15T03:30:54.575Z,5.07
2023-08-15T03:33:21.536Z,6.00
2023-08-15T03:35:49.573Z,5.30
2023-08-15T03:38:17.864Z,5.70
2023-08-15T03:40:45.598Z,5.40
2023-08-15T03:43:12.617Z,6.17
2023-08-15T03:45:40.122Z,5.90
2023-08-15T03:48:10.833Z,5.73
2023-08-15T03:50:39.040Z,5.60
2023-08-15T03:53:06.676Z,6.03
2023-08-15T03:55:34.230Z,5.77
2023-08-15T03:58:00.988Z,6.53
2023-08-15T04:00:27.702Z,5.90
2023-08-15T04:02:54.407Z,5.97
2023-08-15T04:05:21.145Z,6.13
2023-08-15T04:07:48.005Z,5.47
2023-08-15T04:10:14.734Z,6.23
2023-08-15T04:12:42.108Z,6.03
2023-08-15T04:15:09.124Z,6.17
2023-08-15T04:17:35.880Z,6.30
2023-08-15T04:20:04.266Z,6.03
2023-08-15T04:22:31.165Z,5.80
2023-08-15T04:24:58.013Z,6.03
2023-08-15T04:27:24.814Z,5.40
2023-08-15T04:29:52.326Z,6.00
2023-08-15T04:32:19.086Z,5.93
2023-08-15T04:34:47.400Z,6.07
2023-08-15T04:37:15.164Z,5.87
2023-08-15T04:39:41.841Z,5.87
2023-08-15T04:42:08.529Z,5.50
2023-08-15T04:44:35.233Z,6.27
2023-08-15T04:47:01.993Z,6.57
2023-08-15T04:49:28.689Z,6.27
2023-08-15T04:51:55.425Z,6.07
2023-08-15T04:54:22.182Z,6.13
2023-08-15T04:56:50.045Z,5.90
2023-08-15T04:59:18.719Z,6.10
2023-08-15T05:01:45.736Z,6.20
2023-08-15T05:04:12.650Z,7.10
2023-08-15T05:06:42.454Z,6.40
2023-08-15T05:09:09.237Z,5.63
2023-08-15T05:11:36.007Z,5.87
2023-08-15T05:14:02.792Z,8.13
2023-08-15T05:16:29.700Z,6.50
2023-08-15T05:18:56.408Z,6.50
2023-08-15T05:21:23.198Z,7.10
2023-08-15T05:23:50.202Z,6.77
2023-08-15T05:26:16.924Z,6.90
2023-08-15T05:28:45.970Z,7.03
2023-08-15T05:31:15.993Z,7.83
2023-08-15T05:33:42.716Z,7.47
2023-08-15T05:36:09.502Z,7.70
2023-08-15T05:38:37.386Z,8.00
2023-08-15T05:41:04.499Z,8.40
2023-08-15T05:43:31.203Z,8.33
2023-08-15T05:45:58.243Z,4.73
2023-08-15T05:48:24.970Z,4.00
2023-08-15T05:50:51.839Z,3.60
2023-08-15T05:55:47.394Z,4.30
2023-08-15T05:58:14.101Z,4.30
2023-08-15T06:00:42.238Z,3.60
2023-08-15T06:03:09.215Z,4.33
2023-08-15T06:05:36.208Z,4.10
2023-08-15T06:08:02.943Z,3.93
2023-08-15T06:10:29.657Z,4.00
2023-08-15T06:12:56.431Z,4.43
2023-08-15T06:15:23.186Z,4.30
2023-08-15T06:17:49.968Z,3.87
2023-08-15T06:20:16.858Z,3.87
2023-08-15T06:22:43.591Z,4.20
2023-08-15T06:25:10.395Z,3.60
2023-08-15T06:27:37.159Z,4.00
2023-08-15T06:30:04.322Z,3.87
2023-08-15T06:32:33.574Z,4.47
2023-08-15T06:35:01.452Z,4.43
2023-08-15T06:37:28.189Z,4.00
2023-08-15T06:39:54.920Z,3.93
2023-08-15T06:42:21.668Z,3.73
2023-08-15T06:44:48.367Z,3.60
2023-08-15T06:47:15.152Z,4.30
2023-08-15T06:49:42.244Z,4.83
2023-08-15T06:52:09.072Z,3.80
2023-08-15T06:54:37.395Z,4.13
2023-08-15T06:57:04.402Z,4.37
2023-08-15T06:59:36.278Z,4.10
2023-08-15T07:02:03.336Z,3.50
2023-08-15T07:04:30.078Z,3.60
2023-08-15T07:06:58.344Z,3.57
2023-08-15T07:09:25.817Z,3.60
2023-08-15T07:11:52.553Z,3.30
2023-08-15T07:14:19.396Z,3.27
2023-08-15T07:16:47.370Z,3.50
2023-08-15T07:19:14.174Z,3.80
2023-08-15T07:21:42.551Z,3.47
2023-08-15T07:24:09.283Z,3.50
2023-08-15T07:26:37.271Z,3.60
2023-08-15T07:29:04.370Z,4.03
2023-08-15T07:31:31.536Z,3.83
2023-08-15T07:33:58.320Z,3.77
2023-08-15T07:36:25.194Z,4.00
2023-08-15T07:38:51.911Z,4.40
2023-08-15T07:41:18.658Z,4.40
2023-08-15T07:43:45.432Z,4.60
2023-08-15T07:46:12.518Z,4.33
2023-08-15T07:48:39.460Z,4.80
2023-08-15T07:51:06.221Z,4.47
2023-08-15T07:53:32.958Z,4.70
2023-08-15T07:55:59.836Z,4.20
2023-08-15T07:58:26.571Z,3.83
2023-08-15T08:00:53.752Z,4.10
2023-08-15T08:03:20.542Z,4.10
2023-08-15T08:05:47.745Z,3.97
2023-08-15T08:08:15.222Z,4.73
2023-08-15T08:10:42.017Z,4.10
2023-08-15T08:13:13.001Z,4.63
2023-08-15T08:15:40.070Z,4.30
2023-08-15T08:18:06.972Z,4.17
2023-08-15T08:20:33.784Z,4.30
2023-08-15T08:23:00.493Z,3.97
2023-08-15T08:25:28.063Z,4.80
2023-08-15T08:27:55.466Z,4.00
2023-08-15T08:30:26.477Z,4.47
2023-08-15T08:32:54.948Z,4.30
2023-08-15T08:35:21.688Z,4.50
2023-08-15T08:37:48.805Z,4.40
2023-08-15T08:40:17.456Z,5.90
2023-08-15T08:42:45.313Z,4.70
2023-08-15T08:45:12.785Z,5.10
2023-08-15T08:47:41.125Z,4.80
2023-08-15T08:50:12.087Z,5.27
2023-08-15T08:52:43.226Z,5.00
2023-08-15T08:55:10.595Z,4.60
2023-08-15T08:57:38.257Z,5.20
2023-08-15T09:00:08.932Z,5.13
2023-08-15T09:02:36.721Z,4.93
2023-08-15T09:05:08.514Z,5.47
2023-08-15T09:07:36.850Z,5.33
2023-08-15T09:10:05.906Z,5.70
2023-08-15T09:12:34.023Z,5.77
2023-08-15T09:15:00.819Z,5.50
2023-08-15T09:17:28.128Z,6.60
2023-08-15T09:19:55.353Z,6.20
2023-08-15T09:22:25.806Z,6.03
2023-08-15T09:24:52.753Z,7.13
2023-08-15T09:27:20.015Z,6.90
2023-08-15T09:29:47.125Z,6.80
2023-08-15T09:32:15.846Z,6.90
2023-08-15T09:34:42.658Z,6.10
2023-08-15T09:37:09.972Z,6.40
2023-08-15T09:39:37.746Z,5.63
2023-08-15T09:42:04.751Z,6.47
2023-08-15T09:44:34.120Z,6.40
2023-08-15T09:47:02.372Z,5.90
2023-08-15T09:49:32.520Z,6.03
2023-08-15T09:52:02.179Z,5.87
2023-08-15T09:54:31.852Z,6.23
2023-08-15T09:56:58.931Z,5.57
2023-08-15T09:59:25.759Z,6.80
2023-08-15T10:01:54.924Z,7.00
2023-08-15T10:04:23.866Z,6.50
2023-08-15T10:06:54.855Z,6.77
2023-08-15T10:09:22.079Z,8.33
2023-08-15T10:11:48.939Z,6.77
2023-08-15T10:14:18.912Z,6.67
2023-08-15T10:16:45.994Z,7.93
2023-08-15T10:19:19.591Z,7.50
2023-08-15T10:21:53.926Z,7.53
2023-08-15T10:24:22.374Z,7.90
2023-08-15T10:26:52.558Z,7.73
2023-08-15T10:29:19.291Z,8.10
2023-08-15T10:31:46.675Z,8.70
2023-08-15T10:34:13.729Z,9.20
2023-08-15T10:36:46.353Z,9.50
2023-08-15T10:39:15.827Z,10.00
2023-08-15T10:41:43.350Z,9.38
2023-08-15T10:44:10.132Z,10.00
2023-08-15T10:46:37.494Z,9.73
2023-08-15T10:49:24.533Z,9.48
2023-08-15T10:51:59.262Z,9.20
2023-08-15T10:54:26.019Z,10.70
2023-08-15T10:56:52.753Z,9.93
2023-08-15T10:59:19.676Z,10.38
2023-08-15T11:01:47.573Z,10.30
2023-08-15T11:04:16.897Z,10.25
2023-08-15T11:06:49.114Z,8.65
2023-08-15T11:09:17.328Z,9.38
2023-08-15T11:11:45.454Z,11.20
2023-08-15T11:14:19.667Z,11.15
2023-08-15T11:16:48.033Z,11.50
2023-08-15T11:19:19.569Z,9.82
2023-08-15T11:21:47.703Z,11.07
2023-08-15T11:24:14.480Z,11.20
2023-08-15T11:26:44.081Z,10.57
2023-08-15T11:29:13.601Z,10.43
2023-08-15T11:31:40.804Z,9.48
2023-08-15T11:34:08.717Z,10.02
2023-08-15T11:36:37.072Z,8.82
2023-08-15T11:39:04.296Z,9.20
2023-08-15T11:41:33.283Z,9.38
2023-08-15T11:44:02.194Z,7.15
2023-08-15T11:46:33.512Z,7.45
2023-08-15T11:49:05.854Z,7.47
2023-08-15T11:51:32.570Z,7.70
2023-08-15T11:54:00.489Z,6.93
2023-08-15T11:56:27.282Z,7.75
2023-08-15T11:58:54.197Z,6.95
2023-08-15T12:01:21.478Z,5.53
2023-08-15T12:03:48.353Z,6.40
2023-08-15T12:06:16.819Z,6.18
2023-08-15T12:08:47.006Z,5.28
2023-08-15T12:11:19.893Z,6.68
2023-08-15T12:13:47.048Z,5.53
2023-08-15T12:16:13.840Z,5.18
2023-08-15T12:18:40.835Z,5.43
2023-08-15T12:21:14.070Z,4.93
2023-08-15T12:23:42.485Z,5.60
2023-08-15T12:26:09.270Z,5.80
2023-08-15T12:28:36.077Z,6.18
2023-08-15T12:31:02.925Z,6.10
2023-08-15T12:33:43.999Z,5.28
2023-08-15T12:36:15.301Z,4.78
2023-08-15T12:38:43.337Z,5.60
2023-08-15T12:41:10.567Z,5.82
2023-08-15T12:43:37.751Z,5.60
2023-08-15T12:46:05.142Z,5.45
2023-08-15T12:48:32.011Z,5.18
2023-08-15T12:51:02.081Z,5.75
2023-08-15T12:53:28.897Z,5.78
2023-08-15T12:55:55.764Z,5.38
2023-08-15T12:58:22.584Z,4.95
2023-08-15T13:00:50.250Z,4.60
2023-08-15T13:03:19.425Z,5.53
2023-08-15T13:05:47.619Z,5.30
2023-08-15T13:08:16.791Z,4.88
2023-08-15T13:10:44.511Z,5.50
2023-08-15T13:13:11.686Z,4.95
2023-08-15T13:15:38.818Z,5.07
2023-08-15T13:18:05.953Z,5.07
2023-08-15T13:20:32.758Z,5.10
2023-08-15T13:22:59.631Z,5.20
2023-08-15T13:25:26.363Z,5.22
2023-08-15T13:27:53.089Z,5.30
2023-08-15T13:30:19.856Z,4.85
2023-08-15T13:32:46.633Z,4.38
2023-08-15T13:35:13.360Z,5.13
2023-08-15T13:37:40.092Z,4.80
2023-08-15T13:40:07.762Z,4.63
2023-08-15T13:42:38.907Z,4.53
2023-08-15T13:45:09.494Z,5.00
2023-08-15T13:47:41.451Z,5.10
2023-08-15T13:50:09.665Z,4.85
2023-08-15T13:52:37.768Z,4.47
2023-08-15T13:55:05.890Z,4.38
2023-08-15T13:57:33.541Z,5.03
2023-08-15T14:00:04.208Z,5.43
2023-08-15T14:02:36.872Z,4.72
2023-08-15T14:05:05.138Z,4.43
2023-08-15T14:07:33.050Z,4.63
2023-08-15T14:09:59.980Z,4.28
2023-08-15T14:12:27.935Z,4.60
2023-08-15T14:14:54.727Z,4.65
2023-08-15T14:17:21.487Z,4.72
2023-08-15T14:19:48.257Z,4.38
2023-08-15T14:22:16.111Z,4.28
2023-08-15T14:24:47.666Z,4.80
2023-08-15T14:27:14.609Z,4.03
2023-08-15T14:29:41.544Z,4.70
2023-08-15T14:32:08.475Z,4.18
2023-08-15T14:34:35.638Z,3.88
2023-08-15T14:37:02.366Z,4.25
2023-08-15T14:39:29.057Z,3.30
2023-08-15T14:41:55.826Z,4.15
2023-08-15T14:44:22.521Z,3.75
2023-08-15T14:46:49.234Z,3.50
2023-08-15T14:49:15.970Z,3.88
2023-08-15T14:51:42.684Z,3.78
2023-08-15T14:54:09.508Z,3.70
2023-08-15T14:56:36.290Z,3.97
2023-08-15T14:59:03.084Z,3.92
2023-08-15T15:01:29.900Z,3.30
2023-08-15T15:03:57.084Z,3.55
2023-08-15T15:06:23.892Z,3.00
2023-08-15T15:08:50.773Z,2.92
2023-08-15T15:11:17.509Z,3.33
2023-08-15T15:13:45.678Z,2.95
2023-08-15T15:16:13.758Z,2.85
2023-08-15T15:18:42.196Z,2.78
2023-08-15T15:21:09.091Z,3.05
2023-08-15T15:23:35.781Z,2.70
2023-08-15T15:26:02.629Z,2.70
2023-08-15T15:28:29.370Z,2.90
2023-08-15T15:30:56.063Z,3.10
2023-08-15T15:33:22.851Z,3.08
2023-08-15T15:35:49.641Z,2.67
2023-08-15T15:38:16.419Z,2.88
2023-08-15T15:40:43.120Z,2.70
2023-08-15T15:43:10.085Z,2.90
2023-08-15T15:45:37.473Z,3.10
2023-08-15T15:48:04.781Z,3.25
2023-08-15T15:50:33.904Z,2.80
2023-08-15T15:53:01.973Z,2.67
2023-08-15T15:55:28.750Z,2.92
2023-08-15T15:57:55.451Z,2.90
2023-08-15T16:00:22.375Z,3.30
2023-08-15T16:02:49.177Z,2.95
2023-08-15T16:05:16.084Z,2.67
2023-08-15T16:07:43.204Z,3.33
2023-08-15T16:10:11.892Z,2.50
2023-08-15T16:12:38.912Z,2.53
2023-08-15T16:15:06.081Z,2.97
2023-08-15T16:17:33.550Z,2.42
2023-08-15T16:20:00.496Z,2.90
2023-08-15T16:22:27.352Z,2.75
2023-08-15T16:24:54.474Z,2.60
2023-08-15T16:27:21.311Z,3.40
2023-08-15T16:29:48.304Z,3.28
2023-08-15T16:32:17.129Z,2.60
2023-08-15T16:34:44.194Z,2.50
2023-08-15T16:37:11.047Z,2.50
2023-08-15T16:39:37.820Z,2.50
2023-08-15T16:42:04.968Z,2.58
2023-08-15T16:44:31.667Z,2.43
2023-08-15T16:46:58.463Z,2.97
2023-08-15T16:49:25.422Z,2.45
2023-08-15T16:51:52.228Z,3.03
2023-08-15T16:54:19.166Z,2.47
2023-08-15T16:56:45.907Z,2.60
2023-08-15T16:59:12.729Z,2.25
2023-08-15T17:01:39.511Z,2.63
2023-08-15T17:04:06.574Z,2.50
2023-08-15T17:06:33.427Z,2.40
2023-08-15T17:09:00.176Z,2.33
2023-08-15T17:11:26.956Z,2.30
2023-08-15T17:13:55.948Z,2.63
2023-08-15T17:16:22.794Z,2.50
2023-08-15T17:18:49.560Z,3.58
2023-08-15T17:21:16.234Z,2.47
2023-08-15T17:23:44.801Z,2.75
2023-08-15T17:26:11.518Z,2.50
2023-08-15T17:28:38.314Z,2.35
2023-08-15T17:31:06.242Z,2.50
2023-08-15T17:33:33.043Z,3.00
2023-08-15T17:36:00.142Z,2.20
2023-08-15T17:38:26.845Z,2.55
2023-08-15T17:40:53.564Z,2.58
2023-08-15T17:43:20.422Z,2.67
2023-08-15T17:45:47.296Z,2.78
2023-08-15T17:48:14.093Z,3.00
2023-08-15T17:50:40.826Z,2.40
2023-08-15T17:53:07.622Z,2.75
2023-08-15T17:55:34.408Z,2.70
2023-08-15T17:58:01.139Z,2.70
2023-08-15T18:00:29.860Z,2.72
2023-08-15T18:02:57.229Z,2.60
2023-08-15T18:05:25.834Z,2.53
2023-08-15T18:07:52.629Z,2.80
2023-08-15T18:10:20.399Z,2.40
2023-08-15T18:12:47.236Z,2.78
2023-08-15T18:15:14.092Z,2.80
2023-08-15T18:17:40.879Z,3.30
2023-08-15T18:20:08.267Z,2.50
2023-08-15T18:22:38.782Z,2.90
2023-08-15T18:25:05.909Z,3.53
2023-08-15T18:27:32.690Z,2.72
2023-08-15T18:30:02.075Z,2.60
2023-08-15T18:32:28.909Z,2.85
2023-08-15T18:34:55.647Z,3.00
2023-08-15T18:37:22.488Z,2.97
2023-08-15T18:39:49.298Z,3.10
2023-08-15T18:42:16.036Z,3.40
2023-08-15T18:44:43.587Z,3.20
2023-08-15T18:47:10.358Z,2.90
2023-08-15T18:49:37.125Z,3.17
2023-08-15T18:52:04.071Z,3.70
2023-08-15T18:54:30.882Z,3.10
2023-08-15T18:56:57.787Z,3.50
2023-08-15T18:59:24.592Z,3.50
2023-08-15T19:01:51.660Z,4.90
2023-08-15T19:04:18.432Z,4.90
2023-08-15T19:06:45.157Z,4.27
2023-08-15T19:09:11.917Z,3.80
2023-08-15T19:11:38.673Z,3.90
2023-08-15T19:14:05.582Z,4.10
2023-08-15T19:16:32.317Z,3.60
2023-08-15T19:19:03.918Z,3.80
2023-08-15T19:21:31.235Z,3.53
2023-08-15T19:23:57.966Z,3.77
2023-08-15T19:26:24.758Z,3.23
2023-08-15T19:28:51.847Z,3.70
2023-08-15T19:31:18.641Z,3.50
2023-08-15T19:33:45.390Z,3.50
2023-08-15T19:36:12.100Z,3.97
2023-08-15T19:38:38.963Z,3.73
2023-08-15T19:41:05.868Z,3.70
2023-08-15T19:43:32.904Z,3.73
2023-08-15T19:45:59.632Z,3.50
2023-08-15T19:48:28.091Z,3.90
2023-08-15T19:50:54.884Z,3.70
2023-08-15T19:53:21.584Z,3.30
2023-08-15T19:55:48.316Z,3.30
2023-08-15T19:58:15.116Z,3.03
2023-08-15T20:00:41.868Z,3.17
2023-08-15T20:03:08.936Z,3.90
2023-08-15T20:05:35.735Z,3.20
2023-08-15T20:08:03.461Z,3.70
2023-08-15T20:10:30.282Z,3.30
2023-08-15T20:12:58.253Z,3.60
2023-08-15T20:15:25.151Z,4.07
2023-08-15T20:17:51.934Z,3.20
2023-08-15T20:20:18.703Z,4.00
2023-08-15T20:22:45.424Z,3.20
2023-08-15T20:25:12.253Z,3.30
2023-08-15T20:27:39.186Z,3.60
2023-08-15T20:30:06.643Z,3.43
2023-08-15T20:32:33.541Z,3.30
2023-08-15T20:35:00.371Z,3.60
2023-08-15T20:37:27.939Z,2.93
2023-08-15T20:39:54.767Z,3.90
2023-08-15T20:42:21.875Z,3.70
2023-08-15T20:44:48.880Z,3.27
2023-08-15T20:47:15.571Z,3.93
2023-08-15T20:49:42.460Z,4.03
2023-08-15T20:52:10.901Z,3.80
2023-08-15T20:54:37.709Z,4.73
2023-08-15T20:57:04.939Z,4.47
2023-08-15T20:59:31.664Z,3.90
2023-08-15T21:01:58.598Z,3.83
2023-08-15T21:04:25.472Z,4.43
2023-08-15T21:06:53.373Z,6.73
2023-08-15T21:09:20.550Z,3.97
2023-08-15T21:11:48.001Z,3.53
2023-08-15T21:14:15.460Z,4.13
2023-08-15T21:16:42.421Z,3.70
2023-08-15T21:19:09.165Z,3.77
2023-08-15T21:21:35.868Z,3.87
2023-08-15T21:24:02.782Z,3.47
2023-08-15T21:26:30.317Z,4.47
2023-08-15T21:28:57.021Z,3.50
2023-08-15T21:31:23.789Z,4.00
2023-08-15T21:33:50.522Z,4.50
2023-08-15T21:36:17.247Z,4.37
2023-08-15T21:38:43.988Z,4.20
2023-08-15T21:41:10.799Z,3.80
2023-08-15T21:43:37.566Z,3.80
2023-08-15T21:46:04.486Z,4.20
2023-08-15T21:48:33.472Z,3.90
2023-08-15T21:51:00.244Z,4.00
2023-08-15T21:53:27.241Z,3.70
2023-08-15T21:55:54.315Z,4.30
2023-08-15T21:58:21.041Z,4.60
2023-08-15T22:00:47.782Z,4.10
2023-08-15T22:03:14.589Z,4.00
2023-08-15T22:05:46.154Z,4.10
2023-08-15T22:08:13.025Z,4.20
2023-08-15T22:10:39.853Z,4.23
2023-08-15T22:13:06.691Z,4.67
2023-08-15T22:15:33.413Z,4.67
2023-08-15T22:18:13.310Z,4.50
2023-08-15T22:23:13.591Z,4.50
2023-08-15T22:25:47.999Z,4.90
2023-08-15T22:28:15.280Z,4.73
2023-08-15T22:30:42.262Z,4.40
2023-08-15T22:33:09.228Z,4.53
2023-08-15T22:35:43.189Z,4.50
2023-08-15T22:38:10.637Z,5.20
2023-08-15T22:40:37.769Z,4.77
2023-08-15T22:43:06.107Z,4.97
2023-08-15T22:45:33.022Z,4.73
2023-08-15T22:47:59.935Z,4.90
2023-08-15T22:50:26.733Z,5.47
2023-08-15T22:52:56.345Z,5.20
2023-08-15T22:55:23.276Z,5.73
2023-08-15T22:57:50.092Z,6.27
2023-08-15T23:00:17.324Z,6.67
2023-08-15T23:02:44.099Z,5.70
2023-08-15T23:05:11.364Z,5.50
2023-08-15T23:07:38.356Z,6.80
2023-08-15T23:10:06.504Z,6.27
2023-08-15T23:12:33.217Z,6.30
2023-08-15T23:14:59.960Z,6.30
2023-08-15T23:17:26.680Z,6.03
2023-08-15T23:19:53.425Z,7.07
2023-08-15T23:22:20.164Z,6.57
2023-08-15T23:24:46.949Z,6.20
2023-08-15T23:27:13.814Z,6.73
2023-08-15T23:29:40.574Z,6.43
2023-08-15T23:32:07.984Z,6.90
2023-08-15T23:34:34.829Z,6.13
2023-08-15T23:37:01.603Z,6.83
2023-08-15T23:39:28.309Z,7.30
2023-08-15T23:41:55.052Z,5.80
2023-08-15T23:44:21.742Z,6.07
2023-08-15T23:46:48.922Z,6.47
2023-08-15T23:49:16.298Z,6.07
2023-08-15T23:51:43.014Z,5.97
2023-08-15T23:54:09.722Z,6.07
2023-08-15T23:56:36.884Z,6.80
2023-08-15T23:59:04.165Z,6.27
